sensor_id;sensor_type;location;lat;lon;timestamp;P1;durP1;ratioP1;P2;durP2;ratioP2
79570;SDS011;69034;49.444;7.758;2023-11-19T00:01:35;0.70;;;0.47;;
79570;SDS011;69034;49.444;7.758;2023-11-19T00:05:36;1.40;;;0.40;;
79570;SDS011;69034;49.444;7.758;2023-11-19T00:09:37;1.00;;;0.45;;
79570;SDS011;69034;49.444;7.758;2023-11-19T00:13:39;0.75;;;0.32;;
79570;SDS011;69034;49.444;7.758;2023-11-19T00:17:42;0.40;;;0.20;;
79570;SDS011;69034;49.444;7.758;2023-11-19T00:21:45;0.45;;;0.35;;
79570;SDS011;69034;49.444;7.758;2023-11-19T00:25:46;1.55;;;0.30;;
79570;SDS011;69034;49.444;7.758;2023-11-19T00:29:47;0.50;;;0.30;;
79570;SDS011;69034;49.444;7.758;2023-11-19T00:33:49;1.80;;;0.35;;
79570;SDS011;69034;49.444;7.758;2023-11-19T00:37:51;0.68;;;0.32;;
79570;SDS011;69034;49.444;7.758;2023-11-19T00:41:53;0.90;;;0.57;;
79570;SDS011;69034;49.444;7.758;2023-11-19T00:45:54;0.90;;;0.30;;
79570;SDS011;69034;49.444;7.758;2023-11-19T00:49:55;1.27;;;0.52;;
79570;SDS011;69034;49.444;7.758;2023-11-19T00:53:55;2.70;;;0.65;;
79570;SDS011;69034;49.444;7.758;2023-11-19T00:57:56;0.47;;;0.20;;
79570;SDS011;69034;49.444;7.758;2023-11-19T01:01:56;1.60;;;0.60;;
79570;SDS011;69034;49.444;7.758;2023-11-19T01:05:57;1.02;;;0.50;;
79570;SDS011;69034;49.444;7.758;2023-11-19T01:09:59;1.38;;;0.40;;
79570;SDS011;69034;49.444;7.758;2023-11-19T01:14:00;0.90;;;0.30;;
79570;SDS011;69034;49.444;7.758;2023-11-19T01:18:01;1.70;;;0.40;;
79570;SDS011;69034;49.444;7.758;2023-11-19T01:22:04;0.43;;;0.20;;
79570;SDS011;69034;49.444;7.758;2023-11-19T01:26:05;0.63;;;0.38;;
79570;SDS011;69034;49.444;7.758;2023-11-19T01:30:07;2.05;;;0.73;;
79570;SDS011;69034;49.444;7.758;2023-11-19T01:34:09;1.40;;;0.60;;
79570;SDS011;69034;49.444;7.758;2023-11-19T01:38:11;0.15;;;0.13;;
79570;SDS011;69034;49.444;7.758;2023-11-19T01:42:12;1.13;;;0.15;;
79570;SDS011;69034;49.444;7.758;2023-11-19T01:46:13;1.10;;;0.40;;
79570;SDS011;69034;49.444;7.758;2023-11-19T01:50:14;0.73;;;0.30;;
79570;SDS011;69034;49.444;7.758;2023-11-19T01:54:15;1.08;;;0.30;;
79570;SDS011;69034;49.444;7.758;2023-11-19T01:58:15;1.02;;;0.40;;
79570;SDS011;69034;49.444;7.758;2023-11-19T02:02:17;0.45;;;0.20;;
79570;SDS011;69034;49.444;7.758;2023-11-19T02:06:20;0.35;;;0.20;;
79570;SDS011;69034;49.444;7.758;2023-11-19T02:10:21;0.60;;;0.10;;
79570;SDS011;69034;49.444;7.758;2023-11-19T02:14:25;0.82;;;0.28;;
79570;SDS011;69034;49.444;7.758;2023-11-19T02:18:26;1.00;;;0.50;;
79570;SDS011;69034;49.444;7.758;2023-11-19T02:22:28;1.17;;;0.47;;
79570;SDS011;69034;49.444;7.758;2023-11-19T02:26:30;0.68;;;0.32;;
79570;SDS011;69034;49.444;7.758;2023-11-19T02:30:58;1.00;;;0.32;;
79570;SDS011;69034;49.444;7.758;2023-11-19T02:34:59;0.98;;;0.50;;
79570;SDS011;69034;49.444;7.758;2023-11-19T02:39:00;0.70;;;0.20;;
79570;SDS011;69034;49.444;7.758;2023-11-19T02:43:01;0.63;;;0.30;;
79570;SDS011;69034;49.444;7.758;2023-11-19T02:47:05;0.30;;;0.30;;
79570;SDS011;69034;49.444;7.758;2023-11-19T02:51:08;0.20;;;0.20;;
79570;SDS011;69034;49.444;7.758;2023-11-19T02:55:10;1.30;;;0.40;;
79570;SDS011;69034;49.444;7.758;2023-11-19T02:59:12;0.93;;;0.32;;
79570;SDS011;69034;49.444;7.758;2023-11-19T03:03:27;0.52;;;0.20;;
79570;SDS011;69034;49.444;7.758;2023-11-19T03:07:38;2.92;;;0.20;;
79570;SDS011;69034;49.444;7.758;2023-11-19T03:11:38;2.03;;;0.50;;
79570;SDS011;69034;49.444;7.758;2023-11-19T03:15:39;0.88;;;0.30;;
79570;SDS011;69034;49.444;7.758;2023-11-19T03:19:40;1.45;;;0.45;;
79570;SDS011;69034;49.444;7.758;2023-11-19T03:23:41;0.98;;;0.32;;
79570;SDS011;69034;49.444;7.758;2023-11-19T03:27:43;2.83;;;0.60;;
79570;SDS011;69034;49.444;7.758;2023-11-19T03:31:44;1.92;;;0.52;;
79570;SDS011;69034;49.444;7.758;2023-11-19T03:35:44;0.55;;;0.22;;
79570;SDS011;69034;49.444;7.758;2023-11-19T03:39:46;0.40;;;0.22;;
79570;SDS011;69034;49.444;7.758;2023-11-19T03:43:46;1.17;;;0.50;;
79570;SDS011;69034;49.444;7.758;2023-11-19T03:47:47;0.77;;;0.40;;
79570;SDS011;69034;49.444;7.758;2023-11-19T03:51:49;1.10;;;0.30;;
79570;SDS011;69034;49.444;7.758;2023-11-19T03:55:50;1.23;;;0.60;;
79570;SDS011;69034;49.444;7.758;2023-11-19T03:59:50;1.50;;;0.60;;
79570;SDS011;69034;49.444;7.758;2023-11-19T04:03:51;1.65;;;0.63;;
79570;SDS011;69034;49.444;7.758;2023-11-19T04:07:52;1.75;;;0.82;;
79570;SDS011;69034;49.444;7.758;2023-11-19T04:11:52;2.08;;;0.90;;
79570;SDS011;69034;49.444;7.758;2023-11-19T04:15:53;2.53;;;1.10;;
79570;SDS011;69034;49.444;7.758;2023-11-19T04:19:54;1.90;;;0.80;;
79570;SDS011;69034;49.444;7.758;2023-11-19T04:23:54;1.88;;;0.80;;
79570;SDS011;69034;49.444;7.758;2023-11-19T04:27:55;2.58;;;0.90;;
79570;SDS011;69034;49.444;7.758;2023-11-19T04:31:55;1.60;;;0.70;;
79570;SDS011;69034;49.444;7.758;2023-11-19T04:35:56;2.50;;;1.00;;
79570;SDS011;69034;49.444;7.758;2023-11-19T04:39:57;2.97;;;1.10;;
79570;SDS011;69034;49.444;7.758;2023-11-19T04:43:57;3.00;;;1.05;;
79570;SDS011;69034;49.444;7.758;2023-11-19T04:47:58;2.97;;;0.82;;
79570;SDS011;69034;49.444;7.758;2023-11-19T04:51:58;1.48;;;0.70;;
79570;SDS011;69034;49.444;7.758;2023-11-19T04:55:59;2.20;;;0.70;;
79570;SDS011;69034;49.444;7.758;2023-11-19T05:00:00;2.25;;;0.88;;
79570;SDS011;69034;49.444;7.758;2023-11-19T05:04:01;2.60;;;0.70;;
79570;SDS011;69034;49.444;7.758;2023-11-19T05:08:01;6.15;;;0.90;;
79570;SDS011;69034;49.444;7.758;2023-11-19T05:12:02;1.45;;;0.70;;
79570;SDS011;69034;49.444;7.758;2023-11-19T05:16:03;1.45;;;0.57;;
79570;SDS011;69034;49.444;7.758;2023-11-19T05:20:04;1.50;;;0.57;;
79570;SDS011;69034;49.444;7.758;2023-11-19T05:24:13;1.80;;;0.77;;
79570;SDS011;69034;49.444;7.758;2023-11-19T05:28:14;1.88;;;0.70;;
79570;SDS011;69034;49.444;7.758;2023-11-19T05:32:14;5.22;;;1.20;;
79570;SDS011;69034;49.444;7.758;2023-11-19T05:36:15;2.80;;;1.00;;
79570;SDS011;69034;49.444;7.758;2023-11-19T05:40:16;2.15;;;0.80;;
79570;SDS011;69034;49.444;7.758;2023-11-19T05:44:17;2.53;;;0.65;;
79570;SDS011;69034;49.444;7.758;2023-11-19T05:48:18;3.00;;;0.80;;
79570;SDS011;69034;49.444;7.758;2023-11-19T05:52:19;2.55;;;0.88;;
79570;SDS011;69034;49.444;7.758;2023-11-19T05:56:22;1.20;;;0.45;;
79570;SDS011;69034;49.444;7.758;2023-11-19T06:00:22;1.70;;;0.63;;
79570;SDS011;69034;49.444;7.758;2023-11-19T06:04:23;3.53;;;0.90;;
79570;SDS011;69034;49.444;7.758;2023-11-19T06:08:24;1.77;;;0.50;;
79570;SDS011;69034;49.444;7.758;2023-11-19T06:12:27;1.75;;;0.63;;
79570;SDS011;69034;49.444;7.758;2023-11-19T06:16:27;1.42;;;0.57;;
79570;SDS011;69034;49.444;7.758;2023-11-19T06:20:28;3.08;;;0.73;;
79570;SDS011;69034;49.444;7.758;2023-11-19T06:24:29;1.35;;;0.60;;
79570;SDS011;69034;49.444;7.758;2023-11-19T06:28:30;2.08;;;0.60;;
79570;SDS011;69034;49.444;7.758;2023-11-19T06:32:31;2.67;;;0.95;;
79570;SDS011;69034;49.444;7.758;2023-11-19T06:36:32;2.10;;;0.63;;
79570;SDS011;69034;49.444;7.758;2023-11-19T06:40:34;2.08;;;0.80;;
79570;SDS011;69034;49.444;7.758;2023-11-19T06:44:37;2.13;;;0.73;;
79570;SDS011;69034;49.444;7.758;2023-11-19T06:48:38;1.27;;;0.70;;
79570;SDS011;69034;49.444;7.758;2023-11-19T06:52:39;2.08;;;0.60;;
79570;SDS011;69034;49.444;7.758;2023-11-19T06:56:40;1.55;;;0.68;;
79570;SDS011;69034;49.444;7.758;2023-11-19T07:00:41;1.45;;;0.50;;
79570;SDS011;69034;49.444;7.758;2023-11-19T07:04:42;1.67;;;0.63;;
79570;SDS011;69034;49.444;7.758;2023-11-19T07:08:43;1.80;;;0.65;;
79570;SDS011;69034;49.444;7.758;2023-11-19T07:12:44;1.17;;;0.52;;
79570;SDS011;69034;49.444;7.758;2023-11-19T07:16:45;1.15;;;0.40;;
79570;SDS011;69034;49.444;7.758;2023-11-19T07:20:46;2.03;;;0.93;;
79570;SDS011;69034;49.444;7.758;2023-11-19T07:24:46;1.27;;;0.50;;
79570;SDS011;69034;49.444;7.758;2023-11-19T07:28:47;0.82;;;0.40;;
79570;SDS011;69034;49.444;7.758;2023-11-19T07:32:49;1.88;;;0.50;;
79570;SDS011;69034;49.444;7.758;2023-11-19T07:36:50;1.15;;;0.50;;
79570;SDS011;69034;49.444;7.758;2023-11-19T07:40:50;1.33;;;0.60;;
79570;SDS011;69034;49.444;7.758;2023-11-19T07:44:51;3.10;;;0.65;;
79570;SDS011;69034;49.444;7.758;2023-11-19T07:48:51;2.50;;;0.73;;
79570;SDS011;69034;49.444;7.758;2023-11-19T07:52:52;5.57;;;0.75;;
79570;SDS011;69034;49.444;7.758;2023-11-19T07:56:53;1.05;;;0.45;;
79570;SDS011;69034;49.444;7.758;2023-11-19T08:00:54;1.60;;;0.65;;
79570;SDS011;69034;49.444;7.758;2023-11-19T08:04:55;0.55;;;0.30;;
79570;SDS011;69034;49.444;7.758;2023-11-19T08:08:55;2.28;;;0.68;;
79570;SDS011;69034;49.444;7.758;2023-11-19T08:12:56;4.10;;;1.05;;
79570;SDS011;69034;49.444;7.758;2023-11-19T08:16:57;3.22;;;0.82;;
79570;SDS011;69034;49.444;7.758;2023-11-19T08:20:57;2.65;;;0.98;;
79570;SDS011;69034;49.444;7.758;2023-11-19T08:25:01;2.30;;;0.85;;
79570;SDS011;69034;49.444;7.758;2023-11-19T08:29:04;2.03;;;0.70;;
79570;SDS011;69034;49.444;7.758;2023-11-19T08:33:04;2.22;;;0.80;;
79570;SDS011;69034;49.444;7.758;2023-11-19T08:37:06;3.70;;;0.80;;
79570;SDS011;69034;49.444;7.758;2023-11-19T08:41:07;2.13;;;0.73;;
79570;SDS011;69034;49.444;7.758;2023-11-19T08:45:08;1.98;;;0.60;;
79570;SDS011;69034;49.444;7.758;2023-11-19T08:49:11;2.08;;;0.80;;
79570;SDS011;69034;49.444;7.758;2023-11-19T08:53:12;2.08;;;0.80;;
79570;SDS011;69034;49.444;7.758;2023-11-19T08:57:13;4.50;;;1.10;;
79570;SDS011;69034;49.444;7.758;2023-11-19T09:01:13;2.88;;;1.00;;
79570;SDS011;69034;49.444;7.758;2023-11-19T09:05:14;3.92;;;1.23;;
79570;SDS011;69034;49.444;7.758;2023-11-19T09:09:15;2.80;;;0.95;;
79570;SDS011;69034;49.444;7.758;2023-11-19T09:13:16;2.55;;;0.82;;
79570;SDS011;69034;49.444;7.758;2023-11-19T09:17:16;2.67;;;0.90;;
79570;SDS011;69034;49.444;7.758;2023-11-19T09:21:18;5.55;;;0.80;;
79570;SDS011;69034;49.444;7.758;2023-11-19T09:25:19;2.17;;;0.82;;
79570;SDS011;69034;49.444;7.758;2023-11-19T09:29:20;1.90;;;0.68;;
79570;SDS011;69034;49.444;7.758;2023-11-19T09:33:21;5.75;;;0.95;;
79570;SDS011;69034;49.444;7.758;2023-11-19T09:37:22;3.08;;;1.10;;
79570;SDS011;69034;49.444;7.758;2023-11-19T09:41:23;3.05;;;0.73;;
79570;SDS011;69034;49.444;7.758;2023-11-19T09:45:25;3.67;;;1.00;;
79570;SDS011;69034;49.444;7.758;2023-11-19T09:49:27;3.35;;;0.88;;
79570;SDS011;69034;49.444;7.758;2023-11-19T09:53:30;2.58;;;0.60;;
79570;SDS011;69034;49.444;7.758;2023-11-19T09:57:31;2.13;;;0.80;;
79570;SDS011;69034;49.444;7.758;2023-11-19T10:01:34;2.35;;;0.93;;
79570;SDS011;69034;49.444;7.758;2023-11-19T10:05:36;5.47;;;1.15;;
79570;SDS011;69034;49.444;7.758;2023-11-19T10:09:38;6.53;;;1.30;;
79570;SDS011;69034;49.444;7.758;2023-11-19T10:13:39;4.32;;;1.00;;
79570;SDS011;69034;49.444;7.758;2023-11-19T10:17:41;3.60;;;0.60;;
79570;SDS011;69034;49.444;7.758;2023-11-19T10:21:41;3.42;;;0.98;;
79570;SDS011;69034;49.444;7.758;2023-11-19T10:25:42;4.03;;;1.02;;
79570;SDS011;69034;49.444;7.758;2023-11-19T10:29:46;7.60;;;1.17;;
79570;SDS011;69034;49.444;7.758;2023-11-19T10:33:47;2.40;;;0.70;;
79570;SDS011;69034;49.444;7.758;2023-11-19T10:37:48;5.60;;;1.23;;
79570;SDS011;69034;49.444;7.758;2023-11-19T10:41:49;6.18;;;1.00;;
79570;SDS011;69034;49.444;7.758;2023-11-19T10:45:49;6.95;;;0.85;;
79570;SDS011;69034;49.444;7.758;2023-11-19T10:49:51;1.33;;;0.60;;
79570;SDS011;69034;49.444;7.758;2023-11-19T10:53:51;1.17;;;0.45;;
79570;SDS011;69034;49.444;7.758;2023-11-19T10:58:04;2.20;;;0.73;;
79570;SDS011;69034;49.444;7.758;2023-11-19T11:02:06;4.00;;;0.93;;
79570;SDS011;69034;49.444;7.758;2023-11-19T11:06:09;1.33;;;0.43;;
79570;SDS011;69034;49.444;7.758;2023-11-19T11:10:11;3.58;;;0.80;;
79570;SDS011;69034;49.444;7.758;2023-11-19T11:14:13;4.20;;;0.77;;
79570;SDS011;69034;49.444;7.758;2023-11-19T11:18:17;3.35;;;0.93;;
79570;SDS011;69034;49.444;7.758;2023-11-19T11:22:20;1.65;;;0.55;;
79570;SDS011;69034;49.444;7.758;2023-11-19T11:30:43;2.15;;;0.47;;
79570;SDS011;69034;49.444;7.758;2023-11-19T11:39:23;3.58;;;0.70;;
79570;SDS011;69034;49.444;7.758;2023-11-19T11:43:47;1.83;;;0.80;;
79570;SDS011;69034;49.444;7.758;2023-11-19T11:55:57;5.88;;;1.75;;
79570;SDS011;69034;49.444;7.758;2023-11-19T12:00:01;3.35;;;0.70;;
79570;SDS011;69034;49.444;7.758;2023-11-19T12:04:05;3.75;;;0.80;;
79570;SDS011;69034;49.444;7.758;2023-11-19T12:08:06;0.50;;;0.40;;
79570;SDS011;69034;49.444;7.758;2023-11-19T12:16:19;3.50;;;0.90;;
79570;SDS011;69034;49.444;7.758;2023-11-19T12:20:25;3.25;;;1.13;;
79570;SDS011;69034;49.444;7.758;2023-11-19T12:24:26;3.78;;;0.73;;
79570;SDS011;69034;49.444;7.758;2023-11-19T12:28:27;4.43;;;0.70;;
79570;SDS011;69034;49.444;7.758;2023-11-19T12:32:30;3.60;;;0.93;;
79570;SDS011;69034;49.444;7.758;2023-11-19T12:36:37;2.30;;;0.88;;
79570;SDS011;69034;49.444;7.758;2023-11-19T12:40:38;2.30;;;1.15;;
79570;SDS011;69034;49.444;7.758;2023-11-19T12:44:39;2.03;;;0.60;;
79570;SDS011;69034;49.444;7.758;2023-11-19T12:48:41;4.53;;;1.05;;
79570;SDS011;69034;49.444;7.758;2023-11-19T12:52:42;4.03;;;0.95;;
79570;SDS011;69034;49.444;7.758;2023-11-19T12:56:51;6.07;;;0.90;;
79570;SDS011;69034;49.444;7.758;2023-11-19T13:01:05;5.63;;;0.88;;
79570;SDS011;69034;49.444;7.758;2023-11-19T13:09:33;4.45;;;0.82;;
79570;SDS011;69034;49.444;7.758;2023-11-19T13:18:12;2.28;;;0.70;;
79570;SDS011;69034;49.444;7.758;2023-11-19T13:22:14;5.35;;;1.05;;
79570;SDS011;69034;49.444;7.758;2023-11-19T13:26:14;2.70;;;0.70;;
79570;SDS011;69034;49.444;7.758;2023-11-19T13:30:15;3.47;;;0.85;;
79570;SDS011;69034;49.444;7.758;2023-11-19T13:34:16;2.33;;;0.65;;
79570;SDS011;69034;49.444;7.758;2023-11-19T13:38:17;1.60;;;0.57;;
79570;SDS011;69034;49.444;7.758;2023-11-19T13:42:17;4.53;;;0.77;;
79570;SDS011;69034;49.444;7.758;2023-11-19T13:46:18;2.53;;;0.70;;
79570;SDS011;69034;49.444;7.758;2023-11-19T13:50:19;5.55;;;1.00;;
79570;SDS011;69034;49.444;7.758;2023-11-19T13:54:20;2.35;;;0.73;;
79570;SDS011;69034;49.444;7.758;2023-11-19T13:58:21;1.92;;;0.60;;
79570;SDS011;69034;49.444;7.758;2023-11-19T14:02:22;2.92;;;0.80;;
79570;SDS011;69034;49.444;7.758;2023-11-19T14:06:22;2.50;;;0.77;;
79570;SDS011;69034;49.444;7.758;2023-11-19T14:10:23;4.93;;;0.60;;
79570;SDS011;69034;49.444;7.758;2023-11-19T14:14:24;5.35;;;0.82;;
79570;SDS011;69034;49.444;7.758;2023-11-19T14:18:24;5.00;;;0.73;;
79570;SDS011;69034;49.444;7.758;2023-11-19T14:22:25;3.20;;;0.63;;
79570;SDS011;69034;49.444;7.758;2023-11-19T14:26:25;4.75;;;0.88;;
79570;SDS011;69034;49.444;7.758;2023-11-19T14:30:26;3.00;;;0.52;;
79570;SDS011;69034;49.444;7.758;2023-11-19T14:34:27;3.50;;;0.73;;
79570;SDS011;69034;49.444;7.758;2023-11-19T14:38:27;2.22;;;0.57;;
79570;SDS011;69034;49.444;7.758;2023-11-19T14:42:28;3.05;;;0.90;;
79570;SDS011;69034;49.444;7.758;2023-11-19T14:46:29;1.90;;;0.50;;
79570;SDS011;69034;49.444;7.758;2023-11-19T14:50:29;2.25;;;0.60;;
79570;SDS011;69034;49.444;7.758;2023-11-19T14:54:30;3.40;;;0.80;;
79570;SDS011;69034;49.444;7.758;2023-11-19T14:58:31;2.90;;;1.00;;
79570;SDS011;69034;49.444;7.758;2023-11-19T15:02:31;3.40;;;0.77;;
79570;SDS011;69034;49.444;7.758;2023-11-19T15:06:32;2.95;;;0.75;;
79570;SDS011;69034;49.444;7.758;2023-11-19T15:10:33;1.75;;;0.75;;
79570;SDS011;69034;49.444;7.758;2023-11-19T15:14:34;6.32;;;1.70;;
79570;SDS011;69034;49.444;7.758;2023-11-19T15:18:35;13.25;;;2.65;;
79570;SDS011;69034;49.444;7.758;2023-11-19T15:22:35;2.50;;;0.90;;
79570;SDS011;69034;49.444;7.758;2023-11-19T15:26:36;4.90;;;1.27;;
79570;SDS011;69034;49.444;7.758;2023-11-19T15:30:37;5.05;;;1.20;;
79570;SDS011;69034;49.444;7.758;2023-11-19T15:34:38;4.47;;;1.33;;
79570;SDS011;69034;49.444;7.758;2023-11-19T15:38:41;4.45;;;1.08;;
79570;SDS011;69034;49.444;7.758;2023-11-19T15:42:41;5.55;;;1.60;;
79570;SDS011;69034;49.444;7.758;2023-11-19T15:46:47;7.88;;;1.88;;
79570;SDS011;69034;49.444;7.758;2023-11-19T15:50:47;4.65;;;1.27;;
79570;SDS011;69034;49.444;7.758;2023-11-19T15:54:48;5.63;;;1.13;;
79570;SDS011;69034;49.444;7.758;2023-11-19T15:58:49;6.10;;;1.98;;
79570;SDS011;69034;49.444;7.758;2023-11-19T16:02:49;3.45;;;1.08;;
79570;SDS011;69034;49.444;7.758;2023-11-19T16:06:50;6.80;;;1.85;;
79570;SDS011;69034;49.444;7.758;2023-11-19T16:10:51;15.73;;;5.20;;
79570;SDS011;69034;49.444;7.758;2023-11-19T16:14:51;9.68;;;3.40;;
79570;SDS011;69034;49.444;7.758;2023-11-19T16:18:52;8.18;;;2.17;;
79570;SDS011;69034;49.444;7.758;2023-11-19T16:22:52;8.23;;;1.65;;
79570;SDS011;69034;49.444;7.758;2023-11-19T16:26:53;5.18;;;1.52;;
79570;SDS011;69034;49.444;7.758;2023-11-19T16:30:54;4.60;;;1.63;;
79570;SDS011;69034;49.444;7.758;2023-11-19T16:34:54;10.13;;;2.10;;
79570;SDS011;69034;49.444;7.758;2023-11-19T16:38:55;4.53;;;1.67;;
79570;SDS011;69034;49.444;7.758;2023-11-19T16:42:56;6.28;;;1.30;;
79570;SDS011;69034;49.444;7.758;2023-11-19T16:46:57;5.82;;;1.33;;
79570;SDS011;69034;49.444;7.758;2023-11-19T16:50:58;3.63;;;1.35;;
79570;SDS011;69034;49.444;7.758;2023-11-19T16:54:59;5.53;;;1.23;;
79570;SDS011;69034;49.444;7.758;2023-11-19T16:59:01;5.00;;;1.10;;
79570;SDS011;69034;49.444;7.758;2023-11-19T17:03:02;4.95;;;1.50;;
79570;SDS011;69034;49.444;7.758;2023-11-19T17:07:04;5.50;;;1.58;;
79570;SDS011;69034;49.444;7.758;2023-11-19T17:11:05;10.60;;;1.40;;
79570;SDS011;69034;49.444;7.758;2023-11-19T17:15:06;7.05;;;1.65;;
79570;SDS011;69034;49.444;7.758;2023-11-19T17:19:07;3.53;;;0.85;;
79570;SDS011;69034;49.444;7.758;2023-11-19T17:23:08;4.78;;;1.17;;
79570;SDS011;69034;49.444;7.758;2023-11-19T17:27:08;3.33;;;0.90;;
79570;SDS011;69034;49.444;7.758;2023-11-19T17:31:09;3.47;;;1.35;;
79570;SDS011;69034;49.444;7.758;2023-11-19T17:35:09;5.70;;;1.27;;
79570;SDS011;69034;49.444;7.758;2023-11-19T17:39:10;9.63;;;1.63;;
79570;SDS011;69034;49.444;7.758;2023-11-19T17:43:11;4.05;;;1.45;;
79570;SDS011;69034;49.444;7.758;2023-11-19T17:47:11;3.70;;;0.70;;
79570;SDS011;69034;49.444;7.758;2023-11-19T17:51:12;5.63;;;1.25;;
79570;SDS011;69034;49.444;7.758;2023-11-19T17:55:17;7.97;;;1.33;;
79570;SDS011;69034;49.444;7.758;2023-11-19T17:59:17;8.70;;;1.70;;
79570;SDS011;69034;49.444;7.758;2023-11-19T18:07:24;8.00;;;1.23;;
79570;SDS011;69034;49.444;7.758;2023-11-19T18:11:25;5.53;;;1.85;;
79570;SDS011;69034;49.444;7.758;2023-11-19T18:15:25;8.95;;;1.30;;
79570;SDS011;69034;49.444;7.758;2023-11-19T18:19:26;4.38;;;0.75;;
79570;SDS011;69034;49.444;7.758;2023-11-19T18:23:27;7.47;;;1.45;;
79570;SDS011;69034;49.444;7.758;2023-11-19T18:27:27;10.27;;;1.40;;
79570;SDS011;69034;49.444;7.758;2023-11-19T18:31:28;5.60;;;1.50;;
79570;SDS011;69034;49.444;7.758;2023-11-19T18:35:29;5.93;;;1.85;;
79570;SDS011;69034;49.444;7.758;2023-11-19T18:39:29;5.72;;;1.70;;
79570;SDS011;69034;49.444;7.758;2023-11-19T18:43:31;5.22;;;1.17;;
79570;SDS011;69034;49.444;7.758;2023-11-19T18:47:32;10.05;;;2.45;;
79570;SDS011;69034;49.444;7.758;2023-11-19T18:51:33;7.03;;;1.38;;
79570;SDS011;69034;49.444;7.758;2023-11-19T18:55:34;4.63;;;1.30;;
79570;SDS011;69034;49.444;7.758;2023-11-19T18:59:34;3.67;;;0.95;;
79570;SDS011;69034;49.444;7.758;2023-11-19T19:03:37;9.23;;;1.42;;
79570;SDS011;69034;49.444;7.758;2023-11-19T19:07:38;5.03;;;1.42;;
79570;SDS011;69034;49.444;7.758;2023-11-19T19:11:39;5.82;;;1.38;;
79570;SDS011;69034;49.444;7.758;2023-11-19T19:15:40;7.47;;;1.45;;
79570;SDS011;69034;49.444;7.758;2023-11-19T19:19:41;3.50;;;1.23;;
79570;SDS011;69034;49.444;7.758;2023-11-19T19:23:42;9.15;;;1.58;;
79570;SDS011;69034;49.444;7.758;2023-11-19T19:27:43;4.60;;;1.67;;
79570;SDS011;69034;49.444;7.758;2023-11-19T19:31:44;6.45;;;1.52;;
79570;SDS011;69034;49.444;7.758;2023-11-19T19:35:45;4.82;;;1.30;;
79570;SDS011;69034;49.444;7.758;2023-11-19T19:39:47;4.72;;;1.70;;
79570;SDS011;69034;49.444;7.758;2023-11-19T19:43:48;6.50;;;1.40;;
79570;SDS011;69034;49.444;7.758;2023-11-19T19:47:49;2.40;;;1.05;;
79570;SDS011;69034;49.444;7.758;2023-11-19T19:51:50;7.47;;;1.33;;
79570;SDS011;69034;49.444;7.758;2023-11-19T19:55:52;4.65;;;1.80;;
79570;SDS011;69034;49.444;7.758;2023-11-19T19:59:53;5.72;;;1.75;;
79570;SDS011;69034;49.444;7.758;2023-11-19T20:03:56;6.45;;;1.27;;
79570;SDS011;69034;49.444;7.758;2023-11-19T20:07:57;8.30;;;1.77;;
79570;SDS011;69034;49.444;7.758;2023-11-19T20:11:59;5.97;;;1.25;;
79570;SDS011;69034;49.444;7.758;2023-11-19T20:16:01;11.23;;;1.25;;
79570;SDS011;69034;49.444;7.758;2023-11-19T20:20:03;2.78;;;1.08;;
79570;SDS011;69034;49.444;7.758;2023-11-19T20:24:05;6.53;;;1.40;;
79570;SDS011;69034;49.444;7.758;2023-11-19T20:28:07;6.38;;;1.48;;
79570;SDS011;69034;49.444;7.758;2023-11-19T20:32:08;4.50;;;1.45;;
79570;SDS011;69034;49.444;7.758;2023-11-19T20:36:09;2.35;;;0.98;;
79570;SDS011;69034;49.444;7.758;2023-11-19T20:40:09;2.75;;;0.95;;
79570;SDS011;69034;49.444;7.758;2023-11-19T20:44:11;4.97;;;0.98;;
79570;SDS011;69034;49.444;7.758;2023-11-19T20:48:16;8.77;;;1.73;;
79570;SDS011;69034;49.444;7.758;2023-11-19T20:52:16;9.60;;;1.63;;
79570;SDS011;69034;49.444;7.758;2023-11-19T20:56:20;5.45;;;1.40;;
79570;SDS011;69034;49.444;7.758;2023-11-19T21:00:20;5.30;;;1.45;;
79570;SDS011;69034;49.444;7.758;2023-11-19T21:04:21;6.82;;;1.33;;
79570;SDS011;69034;49.444;7.758;2023-11-19T21:08:22;9.25;;;1.70;;
79570;SDS011;69034;49.444;7.758;2023-11-19T21:12:23;8.05;;;1.35;;
79570;SDS011;69034;49.444;7.758;2023-11-19T21:16:24;7.20;;;1.38;;
79570;SDS011;69034;49.444;7.758;2023-11-19T21:20:26;6.47;;;1.63;;
79570;SDS011;69034;49.444;7.758;2023-11-19T21:24:27;3.25;;;1.52;;
79570;SDS011;69034;49.444;7.758;2023-11-19T21:28:28;5.70;;;1.67;;
79570;SDS011;69034;49.444;7.758;2023-11-19T21:32:33;5.68;;;1.15;;
79570;SDS011;69034;49.444;7.758;2023-11-19T21:36:34;4.68;;;1.85;;
79570;SDS011;69034;49.444;7.758;2023-11-19T21:40:34;7.70;;;1.73;;
79570;SDS011;69034;49.444;7.758;2023-11-19T21:44:35;7.50;;;1.52;;
79570;SDS011;69034;49.444;7.758;2023-11-19T21:48:38;5.15;;;0.85;;
79570;SDS011;69034;49.444;7.758;2023-11-19T21:52:39;9.98;;;1.63;;
79570;SDS011;69034;49.444;7.758;2023-11-19T21:56:40;4.35;;;1.58;;
79570;SDS011;69034;49.444;7.758;2023-11-19T22:00:40;8.00;;;1.30;;
79570;SDS011;69034;49.444;7.758;2023-11-19T22:13:55;5.32;;;1.30;;
79570;SDS011;69034;49.444;7.758;2023-11-19T22:17:56;4.55;;;1.02;;
79570;SDS011;69034;49.444;7.758;2023-11-19T22:21:57;7.75;;;1.50;;
79570;SDS011;69034;49.444;7.758;2023-11-19T22:25:57;8.18;;;2.17;;
79570;SDS011;69034;49.444;7.758;2023-11-19T22:29:58;3.03;;;1.15;;
79570;SDS011;69034;49.444;7.758;2023-11-19T22:33:59;5.53;;;1.42;;
79570;SDS011;69034;49.444;7.758;2023-11-19T22:38:00;4.97;;;1.25;;
79570;SDS011;69034;49.444;7.758;2023-11-19T22:42:01;3.85;;;1.10;;
79570;SDS011;69034;49.444;7.758;2023-11-19T22:46:02;7.32;;;1.38;;
79570;SDS011;69034;49.444;7.758;2023-11-19T22:50:02;7.78;;;1.50;;
79570;SDS011;69034;49.444;7.758;2023-11-19T22:54:08;10.65;;;1.90;;
79570;SDS011;69034;49.444;7.758;2023-11-19T22:58:08;16.95;;;2.28;;
79570;SDS011;69034;49.444;7.758;2023-11-19T23:02:09;2.65;;;0.80;;
79570;SDS011;69034;49.444;7.758;2023-11-19T23:06:10;5.97;;;0.90;;
79570;SDS011;69034;49.444;7.758;2023-11-19T23:10:12;4.22;;;1.25;;
79570;SDS011;69034;49.444;7.758;2023-11-19T23:14:12;9.30;;;1.77;;
79570;SDS011;69034;49.444;7.758;2023-11-19T23:18:13;7.35;;;1.17;;
79570;SDS011;69034;49.444;7.758;2023-11-19T23:22:13;8.50;;;1.92;;
79570;SDS011;69034;49.444;7.758;2023-11-19T23:26:14;6.78;;;1.40;;
79570;SDS011;69034;49.444;7.758;2023-11-19T23:30:15;8.52;;;1.90;;
79570;SDS011;69034;49.444;7.758;2023-11-19T23:34:16;6.25;;;1.00;;
79570;SDS011;69034;49.444;7.758;2023-11-19T23:38:16;7.80;;;1.02;;
79570;SDS011;69034;49.444;7.758;2023-11-19T23:42:18;10.02;;;2.15;;
79570;SDS011;69034;49.444;7.758;2023-11-19T23:46:20;6.03;;;1.98;;
79570;SDS011;69034;49.444;7.758;2023-11-19T23:50:20;9.52;;;1.42;;
79570;SDS011;69034;49.444;7.758;2023-11-19T23:54:23;5.93;;;1.40;;
79570;SDS011;69034;49.444;7.758;2023-11-19T23:58:23;3.67;;;1.05;;
